Time;durP1;ratioP1;P1;durP2;ratioP2;P2;SDS_P1;SDS_P2;PMS_P1;PMS_P2;Temp;Humidity;BMP_temperature;BMP_pressure;BME280_temperature;BME280_humidity;BME280_pressure;Samples;Min_cycle;Max_cycle;Signal;HPM_P1;HPM_P2
2024/01/25 00:00:13;;;;;;;10.40;2.60;;;;;;;;;;5062082;27;87514;-63
2024/01/25 00:02:52;;;;;;;7.93;2.37;;;;;;;;;;5061656;27;87974;-63
2024/01/25 00:05:22;;;;;;;3.87;2.03;;;;;;;;;;5060482;27;89205;-63
2024/01/25 00:07:54;;;;;;;4.67;2.33;;;;;;;;;;5061741;27;90016;-63
2024/01/25 00:10:22;;;;;;;7.43;2.20;;;;;;;;;;5061897;27;89688;-62
2024/01/25 00:12:53;;;;;;;5.70;2.10;;;;;;;;;;5062366;27;87695;-62
2024/01/25 00:15:24;;;;;;;6.13;2.27;;;;;;;;;;5061350;27;88556;-62
2024/01/25 00:17:54;;;;;;;8.63;2.33;;;;;;;;;;5061194;27;89071;-62
2024/01/25 00:20:22;;;;;;;3.67;2.30;;;;;;;;;;5054231;27;88054;-62
2024/01/25 00:22:51;;;;;;;6.50;2.43;;;;;;;;;;5058638;27;87471;-62
2024/01/25 00:25:19;;;;;;;6.90;2.40;;;;;;;;;;5061925;27;89731;-62
2024/01/25 00:27:48;;;;;;;5.93;2.53;;;;;;;;;;5061854;27;88003;-62
2024/01/25 00:30:19;;;;;;;7.80;3.00;;;;;;;;;;5059149;27;87751;-62
2024/01/25 00:32:49;;;;;;;6.63;2.80;;;;;;;;;;5062106;27;87969;-61
2024/01/25 00:35:21;;;;;;;9.27;3.03;;;;;;;;;;5059494;27;88518;-61
2024/01/25 00:37:53;;;;;;;5.53;3.20;;;;;;;;;;5057599;27;89004;-61
2024/01/25 00:40:21;;;;;;;6.50;2.97;;;;;;;;;;5056305;27;88781;-61
2024/01/25 00:42:53;;;;;;;9.00;3.30;;;;;;;;;;5056758;27;87642;-62
2024/01/25 00:45:22;;;;;;;9.67;3.67;;;;;;;;;;5058136;27;89547;-63
2024/01/25 00:47:50;;;;;;;11.30;3.97;;;;;;;;;;5048803;27;89054;-62
2024/01/25 00:50:23;;;;;;;9.67;3.63;;;;;;;;;;5058698;27;89328;-62
2024/01/25 00:52:52;;;;;;;14.23;3.97;;;;;;;;;;5061429;27;89938;-62
2024/01/25 00:55:21;;;;;;;7.37;3.63;;;;;;;;;;5060120;27;88494;-62
2024/01/25 00:57:49;;;;;;;4.87;3.07;;;;;;;;;;5056426;27;89843;-62
2024/01/25 01:00:23;;;;;;;7.27;4.10;;;;;;;;;;5060858;27;89557;-61
2024/01/25 01:02:54;;;;;;;5.67;3.23;;;;;;;;;;5061790;27;87489;-61
2024/01/25 01:05:26;;;;;;;7.33;3.33;;;;;;;;;;5061119;27;89728;-61
2024/01/25 01:07:56;;;;;;;8.87;4.30;;;;;;;;;;5058837;27;90654;-61
2024/01/25 01:10:29;;;;;;;7.33;4.33;;;;;;;;;;5060981;27;88875;-61
2024/01/25 01:12:58;;;;;;;7.27;3.70;;;;;;;;;;5061158;27;87507;-61
2024/01/25 01:15:26;;;;;;;7.90;3.73;;;;;;;;;;5060907;27;89571;-61
2024/01/25 01:17:55;;;;;;;7.07;3.93;;;;;;;;;;5058810;27;89280;-61
2024/01/25 01:20:25;;;;;;;6.30;3.30;;;;;;;;;;5061248;27;87720;-61
2024/01/25 01:22:54;;;;;;;9.70;4.37;;;;;;;;;;5061092;27;87770;-61
2024/01/25 01:25:22;;;;;;;9.27;4.57;;;;;;;;;;5058945;27;88322;-61
2024/01/25 01:27:50;;;;;;;8.77;3.83;;;;;;;;;;5061668;27;87949;-61
2024/01/25 01:30:19;;;;;;;5.77;3.53;;;;;;;;;;5055381;27;89015;-61
2024/01/25 01:32:48;;;;;;;13.40;4.30;;;;;;;;;;5058389;27;88559;-61
2024/01/25 01:35:18;;;;;;;9.50;3.40;;;;;;;;;;5056934;27;88531;-61
2024/01/25 01:37:48;;;;;;;9.67;4.13;;;;;;;;;;5057659;27;87864;-61
2024/01/25 01:40:18;;;;;;;8.63;3.60;;;;;;;;;;5057375;27;90208;-61
2024/01/25 01:42:46;;;;;;;7.80;3.77;;;;;;;;;;5055050;27;87942;-61
2024/01/25 01:45:16;;;;;;;6.47;3.03;;;;;;;;;;5053370;27;89684;-61
2024/01/25 01:47:49;;;;;;;5.90;3.57;;;;;;;;;;5057457;27;89044;-61
2024/01/25 01:50:21;;;;;;;7.33;3.27;;;;;;;;;;5055630;27;90115;-61
2024/01/25 01:52:51;;;;;;;6.87;3.43;;;;;;;;;;5056681;27;89715;-60
2024/01/25 01:55:19;;;;;;;7.53;3.97;;;;;;;;;;5056238;27;89706;-61
2024/01/25 01:57:50;;;;;;;8.93;3.63;;;;;;;;;;5054336;27;88521;-61
2024/01/25 02:00:21;;;;;;;6.80;3.80;;;;;;;;;;5057985;27;87985;-61
2024/01/25 02:02:49;;;;;;;12.53;4.47;;;;;;;;;;5059266;27;87559;-61
2024/01/25 02:05:17;;;;;;;3.90;3.20;;;;;;;;;;5060298;27;89638;-61
2024/01/25 02:07:47;;;;;;;9.47;3.60;;;;;;;;;;5059858;27;88749;-61
2024/01/25 02:10:21;;;;;;;6.00;3.70;;;;;;;;;;5060149;27;88824;-61
2024/01/25 02:12:49;;;;;;;6.77;3.60;;;;;;;;;;5057355;27;88018;-61
2024/01/25 02:15:19;;;;;;;5.70;2.83;;;;;;;;;;5059335;27;89641;-60
2024/01/25 02:17:49;;;;;;;5.87;2.90;;;;;;;;;;5055726;27;88692;-61
2024/01/25 02:20:19;;;;;;;5.60;2.97;;;;;;;;;;5048551;27;88714;-60
2024/01/25 02:22:49;;;;;;;6.93;3.10;;;;;;;;;;5040773;27;87686;-60
2024/01/25 02:25:26;;;;;;;4.20;2.70;;;;;;;;;;5040394;27;88575;-60
2024/01/25 02:27:55;;;;;;;8.63;2.80;;;;;;;;;;5045741;27;88060;-61
2024/01/25 02:30:24;;;;;;;6.07;3.50;;;;;;;;;;5056307;27;88882;-60
2024/01/25 02:32:52;;;;;;;7.23;3.17;;;;;;;;;;5042966;27;88587;-60
2024/01/25 02:35:23;;;;;;;6.70;3.00;;;;;;;;;;5050654;27;89564;-61
2024/01/25 02:37:53;;;;;;;9.67;2.93;;;;;;;;;;5042346;27;90152;-60
2024/01/25 02:40:21;;;;;;;11.57;3.03;;;;;;;;;;5050048;27;89745;-61
2024/01/25 02:42:49;;;;;;;4.77;2.47;;;;;;;;;;5044089;27;88305;-60
2024/01/25 02:45:18;;;;;;;3.27;2.47;;;;;;;;;;5059467;27;88563;-61
2024/01/25 02:47:48;;;;;;;5.53;2.57;;;;;;;;;;5042676;27;89031;-61
2024/01/25 02:50:16;;;;;;;5.30;2.50;;;;;;;;;;5043528;27;87394;-60
2024/01/25 02:52:51;;;;;;;5.50;2.93;;;;;;;;;;5056681;27;87668;-60
2024/01/25 02:55:27;;;;;;;4.23;2.50;;;;;;;;;;5059296;27;89619;-61
2024/01/25 02:57:56;;;;;;;7.77;2.57;;;;;;;;;;5046355;27;87960;-60
2024/01/25 03:00:24;;;;;;;4.57;2.07;;;;;;;;;;5055235;27;88894;-60
2024/01/25 03:02:55;;;;;;;6.60;2.77;;;;;;;;;;5060213;27;87858;-60
2024/01/25 03:05:23;;;;;;;4.67;2.83;;;;;;;;;;5060274;27;88582;-60
2024/01/25 03:07:52;;;;;;;6.93;2.17;;;;;;;;;;5057926;27;88991;-60
2024/01/25 03:10:23;;;;;;;2.87;1.90;;;;;;;;;;5043530;27;88758;-60
2024/01/25 03:12:51;;;;;;;7.00;2.47;;;;;;;;;;5043505;27;87488;-60
2024/01/25 03:15:25;;;;;;;5.40;2.57;;;;;;;;;;5043158;28;88759;-60
2024/01/25 03:17:53;;;;;;;6.30;2.47;;;;;;;;;;5043498;28;88946;-60
2024/01/25 03:20:22;;;;;;;2.97;1.90;;;;;;;;;;5060413;27;88853;-60
2024/01/25 03:22:50;;;;;;;2.47;1.87;;;;;;;;;;5063978;27;87558;-60
2024/01/25 03:25:18;;;;;;;10.07;3.10;;;;;;;;;;5059486;27;89685;-60
2024/01/25 03:27:49;;;;;;;2.00;1.77;;;;;;;;;;5062544;27;88899;-60
2024/01/25 03:30:21;;;;;;;6.17;2.53;;;;;;;;;;5062316;27;89810;-60
2024/01/25 03:32:49;;;;;;;4.43;2.50;;;;;;;;;;5059799;27;87741;-60
2024/01/25 03:35:18;;;;;;;6.67;2.40;;;;;;;;;;5060791;27;90057;-60
2024/01/25 03:37:46;;;;;;;3.97;2.63;;;;;;;;;;5062804;27;89065;-61
2024/01/25 03:40:14;;;;;;;4.77;2.20;;;;;;;;;;5062065;27;88828;-60
2024/01/25 03:42:43;;;;;;;4.73;2.43;;;;;;;;;;5056251;27;87710;-61
2024/01/25 03:45:32;;;;;;;8.23;3.20;;;;;;;;;;5061199;27;89879;-60
2024/01/25 03:48:00;;;;;;;6.03;2.53;;;;;;;;;;5062301;27;87449;-60
2024/01/25 03:50:31;;;;;;;3.70;2.27;;;;;;;;;;5062533;27;88942;-60
2024/01/25 03:52:59;;;;;;;6.23;2.83;;;;;;;;;;5061995;27;87906;-60
2024/01/25 03:55:27;;;;;;;4.17;2.57;;;;;;;;;;5062217;27;88454;-60
2024/01/25 03:57:56;;;;;;;5.40;2.70;;;;;;;;;;5062304;27;89075;-61
2024/01/25 04:00:27;;;;;;;6.50;2.90;;;;;;;;;;5056464;27;88765;-60
2024/01/25 04:02:56;;;;;;;5.23;3.20;;;;;;;;;;5061914;27;87450;-60
2024/01/25 04:05:26;;;;;;;4.33;2.50;;;;;;;;;;5056848;27;89395;-60
2024/01/25 04:07:54;;;;;;;5.13;2.60;;;;;;;;;;5060985;27;89137;-60
2024/01/25 04:10:23;;;;;;;5.70;3.30;;;;;;;;;;5055955;27;88918;-61
2024/01/25 04:12:55;;;;;;;5.13;2.90;;;;;;;;;;5060324;27;87671;-60
2024/01/25 04:15:24;;;;;;;8.60;3.10;;;;;;;;;;5050172;27;89519;-60
2024/01/25 04:17:53;;;;;;;9.80;3.53;;;;;;;;;;5041893;27;89998;-60
2024/01/25 04:20:24;;;;;;;6.20;3.83;;;;;;;;;;5043398;27;89797;-60
2024/01/25 04:22:54;;;;;;;10.10;3.73;;;;;;;;;;5062984;27;87511;-60
2024/01/25 04:25:28;;;;;;;4.17;2.93;;;;;;;;;;5060515;27;88783;-60
2024/01/25 04:28:00;;;;;;;8.97;3.77;;;;;;;;;;5059133;27;89160;-60
2024/01/25 04:30:29;;;;;;;6.63;3.33;;;;;;;;;;5062771;27;89837;-60
2024/01/25 04:32:59;;;;;;;13.23;4.57;;;;;;;;;;5058374;27;87391;-60
2024/01/25 04:35:31;;;;;;;8.13;3.93;;;;;;;;;;5051133;27;88587;-60
2024/01/25 04:37:59;;;;;;;5.20;3.63;;;;;;;;;;5061852;27;88946;-60
2024/01/25 04:40:28;;;;;;;9.10;4.17;;;;;;;;;;5061965;27;89075;-60
2024/01/25 04:42:56;;;;;;;5.93;2.97;;;;;;;;;;5062021;27;87851;-60
2024/01/25 04:45:25;;;;;;;9.17;3.83;;;;;;;;;;5062119;27;89903;-60
2024/01/25 04:47:53;;;;;;;8.10;4.30;;;;;;;;;;5062466;27;89018;-60
2024/01/25 04:50:21;;;;;;;8.40;3.93;;;;;;;;;;5054359;27;88941;-60
2024/01/25 04:52:51;;;;;;;8.37;3.57;;;;;;;;;;5041959;27;87648;-60
2024/01/25 04:55:21;;;;;;;5.47;3.03;;;;;;;;;;5048902;27;89477;-60
2024/01/25 04:57:53;;;;;;;8.87;4.27;;;;;;;;;;5042463;27;89174;-60
2024/01/25 05:00:24;;;;;;;6.50;3.23;;;;;;;;;;5042062;27;87547;-60
2024/01/25 05:02:52;;;;;;;9.37;3.80;;;;;;;;;;5053610;27;87529;-61
2024/01/25 05:05:20;;;;;;;8.23;3.17;;;;;;;;;;5060930;27;89752;-60
2024/01/25 05:07:50;;;;;;;5.27;3.27;;;;;;;;;;5059349;27;90120;-60
2024/01/25 05:10:20;;;;;;;7.07;3.33;;;;;;;;;;5048780;27;89821;-60
2024/01/25 05:12:50;;;;;;;5.13;3.60;;;;;;;;;;5052598;27;87637;-60
2024/01/25 05:15:22;;;;;;;6.20;3.60;;;;;;;;;;5045109;27;88679;-57
2024/01/25 05:17:50;;;;;;;3.77;2.87;;;;;;;;;;5061943;27;89134;-60
2024/01/25 05:20:19;;;;;;;6.80;3.60;;;;;;;;;;5060427;27;88924;-60
2024/01/25 05:22:48;;;;;;;6.77;3.47;;;;;;;;;;5060476;27;87877;-60
2024/01/25 05:25:18;;;;;;;9.07;3.70;;;;;;;;;;5061407;27;89867;-60
2024/01/25 05:27:50;;;;;;;12.13;4.27;;;;;;;;;;5051290;27;89118;-59
2024/01/25 05:30:19;;;;;;;5.90;3.60;;;;;;;;;;5040659;27;89010;-60
2024/01/25 05:32:48;;;;;;;6.53;3.07;;;;;;;;;;5060701;27;87864;-60
2024/01/25 05:35:17;;;;;;;5.57;3.13;;;;;;;;;;5057183;27;89747;-60
2024/01/25 05:37:45;;;;;;;9.63;3.70;;;;;;;;;;5041382;28;88999;-59
2024/01/25 05:40:14;;;;;;;8.70;3.93;;;;;;;;;;5040977;27;88855;-60
2024/01/25 05:42:42;;;;;;;3.20;2.53;;;;;;;;;;5041463;27;87673;-60
2024/01/25 05:45:12;;;;;;;4.20;3.10;;;;;;;;;;5049619;27;88554;-60
2024/01/25 05:47:41;;;;;;;10.80;3.00;;;;;;;;;;5040672;27;89123;-60
2024/01/25 05:50:12;;;;;;;4.80;2.47;;;;;;;;;;5041621;27;89356;-58
2024/01/25 05:52:41;;;;;;;4.60;2.63;;;;;;;;;;5055462;27;87674;-58
2024/01/25 05:55:09;;;;;;;7.10;3.57;;;;;;;;;;5040664;27;88724;-58
2024/01/25 05:57:38;;;;;;;6.23;3.80;;;;;;;;;;5052062;27;89021;-58
2024/01/25 06:00:08;;;;;;;4.27;3.20;;;;;;;;;;5048005;27;89819;-58
2024/01/25 06:02:44;;;;;;;7.13;3.30;;;;;;;;;;5044795;27;87602;-60
2024/01/25 06:05:13;;;;;;;4.03;2.47;;;;;;;;;;5047271;27;88445;-61
2024/01/25 06:07:42;;;;;;;4.97;2.80;;;;;;;;;;5044366;27;88037;-60
2024/01/25 06:10:11;;;;;;;7.53;3.20;;;;;;;;;;5040438;27;89744;-60
2024/01/25 06:12:47;;;;;;;8.00;3.17;;;;;;;;;;5061387;27;87733;-60
2024/01/25 06:15:16;;;;;;;4.93;2.43;;;;;;;;;;5055800;27;89665;-60
2024/01/25 06:17:46;;;;;;;5.33;2.63;;;;;;;;;;5059620;27;88052;-60
2024/01/25 06:20:16;;;;;;;5.63;2.87;;;;;;;;;;5058966;27;88909;-60
2024/01/25 06:22:47;;;;;;;5.67;2.63;;;;;;;;;;5060798;27;87820;-60
2024/01/25 06:25:17;;;;;;;8.70;2.60;;;;;;;;;;5059710;27;89587;-60
2024/01/25 06:27:46;;;;;;;9.17;2.20;;;;;;;;;;5060043;27;89151;-60
2024/01/25 06:30:15;;;;;;;3.73;2.20;;;;;;;;;;5060873;27;89036;-60
2024/01/25 06:32:46;;;;;;;3.43;2.20;;;;;;;;;;5049903;27;87633;-61
2024/01/25 06:35:15;;;;;;;4.90;2.60;;;;;;;;;;5040362;28;89701;-60
2024/01/25 06:37:44;;;;;;;4.33;2.07;;;;;;;;;;5040150;27;88099;-60
2024/01/25 06:40:12;;;;;;;4.90;2.60;;;;;;;;;;5040556;27;87717;-60
2024/01/25 06:42:42;;;;;;;4.67;2.50;;;;;;;;;;5041865;27;87864;-60
2024/01/25 06:45:11;;;;;;;5.27;2.83;;;;;;;;;;5058784;27;89534;-60
2024/01/25 06:47:41;;;;;;;4.77;2.57;;;;;;;;;;5063495;27;89815;-60
2024/01/25 06:50:14;;;;;;;6.30;3.10;;;;;;;;;;5049497;27;89755;-60
2024/01/25 06:52:44;;;;;;;4.17;2.63;;;;;;;;;;5044160;27;87609;-60
2024/01/25 06:55:12;;;;;;;4.20;2.57;;;;;;;;;;5047507;27;89716;-60
2024/01/25 06:57:41;;;;;;;7.73;2.93;;;;;;;;;;5061582;27;89151;-60
2024/01/25 07:00:12;;;;;;;7.13;2.40;;;;;;;;;;5052933;27;88940;-59
2024/01/25 07:02:42;;;;;;;6.57;2.70;;;;;;;;;;5043887;27;87369;-60
2024/01/25 07:05:15;;;;;;;4.87;2.60;;;;;;;;;;5060975;27;88250;-60
2024/01/25 07:07:44;;;;;;;3.73;2.30;;;;;;;;;;5065725;27;88179;-60
2024/01/25 07:10:12;;;;;;;5.80;2.60;;;;;;;;;;5061823;27;88833;-60
2024/01/25 07:12:41;;;;;;;4.40;2.20;;;;;;;;;;5063517;27;87673;-59
2024/01/25 07:15:09;;;;;;;4.07;1.83;;;;;;;;;;5063321;27;88111;-60
2024/01/25 07:17:38;;;;;;;2.83;2.00;;;;;;;;;;5063471;27;88112;-60
2024/01/25 07:20:08;;;;;;;4.97;2.63;;;;;;;;;;5063748;27;87703;-60
2024/01/25 07:22:41;;;;;;;3.33;1.70;;;;;;;;;;5062442;27;87622;-60
2024/01/25 07:25:09;;;;;;;3.57;2.33;;;;;;;;;;5043481;27;89613;-60
2024/01/25 07:27:38;;;;;;;3.87;2.47;;;;;;;;;;5055919;27;88296;-60
2024/01/25 07:30:06;;;;;;;4.83;2.63;;;;;;;;;;5063779;27;87929;-60
2024/01/25 07:32:35;;;;;;;2.93;1.70;;;;;;;;;;5063654;27;87543;-59
2024/01/25 07:35:04;;;;;;;4.53;1.90;;;;;;;;;;5063496;27;89555;-60
2024/01/25 07:37:34;;;;;;;1.70;1.50;;;;;;;;;;5062738;27;89010;-61
2024/01/25 07:40:05;;;;;;;3.57;1.63;;;;;;;;;;5056481;27;89845;-60
2024/01/25 07:42:33;;;;;;;3.43;2.20;;;;;;;;;;5043472;27;88219;-61
2024/01/25 07:45:02;;;;;;;3.33;1.87;;;;;;;;;;5056792;27;89686;-60
2024/01/25 07:47:34;;;;;;;3.60;1.80;;;;;;;;;;5042559;27;89267;-60
2024/01/25 07:50:03;;;;;;;3.20;1.83;;;;;;;;;;5053969;27;87852;-61
2024/01/25 07:52:32;;;;;;;1.53;1.40;;;;;;;;;;5055208;27;87630;-60
2024/01/25 07:55:00;;;;;;;1.63;1.40;;;;;;;;;;5061046;27;88555;-60
2024/01/25 07:57:32;;;;;;;4.60;2.10;;;;;;;;;;5049563;27;88732;-60
2024/01/25 08:00:01;;;;;;;2.50;1.63;;;;;;;;;;5048371;27;88975;-60
2024/01/25 08:02:29;;;;;;;7.23;1.30;;;;;;;;;;5054678;27;87933;-60
2024/01/25 08:04:58;;;;;;;3.93;1.60;;;;;;;;;;5056456;27;89725;-60
2024/01/25 08:07:27;;;;;;;6.40;1.70;;;;;;;;;;5057607;27;89149;-60
2024/01/25 08:09:58;;;;;;;2.50;1.60;;;;;;;;;;5066211;27;89145;-60
2024/01/25 08:12:28;;;;;;;1.83;1.50;;;;;;;;;;5049146;27;88083;-60
2024/01/25 08:15:02;;;;;;;4.97;1.93;;;;;;;;;;5053154;27;89587;-60
2024/01/25 08:17:31;;;;;;;4.30;1.60;;;;;;;;;;5044750;27;89176;-60
2024/01/25 08:20:02;;;;;;;1.73;1.27;;;;;;;;;;5048213;27;88811;-60
2024/01/25 08:22:34;;;;;;;2.97;1.37;;;;;;;;;;5061500;27;87609;-60
2024/01/25 08:25:04;;;;;;;3.13;1.80;;;;;;;;;;5060739;27;88545;-60
2024/01/25 08:27:33;;;;;;;4.77;2.17;;;;;;;;;;5062382;27;90073;-60
2024/01/25 08:30:04;;;;;;;4.37;1.33;;;;;;;;;;5062248;27;88540;-60
2024/01/25 08:32:32;;;;;;;2.20;1.30;;;;;;;;;;5045260;27;87480;-61
2024/01/25 08:35:03;;;;;;;4.67;1.13;;;;;;;;;;5042389;27;88435;-60
2024/01/25 08:37:33;;;;;;;4.90;1.17;;;;;;;;;;5042342;27;89069;-60
2024/01/25 08:40:06;;;;;;;2.97;1.13;;;;;;;;;;5042329;27;89558;-60
2024/01/25 08:42:34;;;;;;;2.07;1.10;;;;;;;;;;5046382;27;87544;-60
2024/01/25 08:45:07;;;;;;;2.77;1.37;;;;;;;;;;5062708;27;89643;-60
2024/01/25 08:47:36;;;;;;;1.73;1.37;;;;;;;;;;5061494;27;88997;-60
2024/01/25 08:50:05;;;;;;;3.70;1.70;;;;;;;;;;5042146;27;88900;-60
2024/01/25 08:52:35;;;;;;;1.80;1.27;;;;;;;;;;5041902;27;87811;-60
2024/01/25 08:55:07;;;;;;;3.10;1.13;;;;;;;;;;5050020;27;89538;-60
2024/01/25 08:57:35;;;;;;;1.47;1.00;;;;;;;;;;5058542;27;88913;-61
2024/01/25 09:00:10;;;;;;;3.17;1.10;;;;;;;;;;5059378;27;88782;-60
2024/01/25 09:02:39;;;;;;;3.23;1.07;;;;;;;;;;5042059;27;87471;-60
2024/01/25 09:05:08;;;;;;;1.77;1.17;;;;;;;;;;5041996;27;89878;-60
2024/01/25 09:07:37;;;;;;;5.47;1.60;;;;;;;;;;5041728;27;87921;-60
2024/01/25 09:10:06;;;;;;;3.10;1.17;;;;;;;;;;5052764;27;88846;-60
2024/01/25 09:12:35;;;;;;;2.63;1.40;;;;;;;;;;5062201;27;87661;-60
2024/01/25 09:15:06;;;;;;;3.03;1.20;;;;;;;;;;5043607;27;88534;-60
2024/01/25 09:17:34;;;;;;;1.63;1.00;;;;;;;;;;5046432;27;88964;-60
2024/01/25 09:20:04;;;;;;;4.37;1.10;;;;;;;;;;5051121;27;89833;-60
2024/01/25 09:22:33;;;;;;;1.33;0.73;;;;;;;;;;5061020;27;87609;-60
2024/01/25 09:25:01;;;;;;;3.23;1.50;;;;;;;;;;5043536;27;89957;-60
2024/01/25 09:27:33;;;;;;;1.33;1.07;;;;;;;;;;5048934;27;89165;-60
2024/01/25 09:30:01;;;;;;;2.03;1.03;;;;;;;;;;5058404;27;88911;-61
2024/01/25 09:32:31;;;;;;;3.27;1.20;;;;;;;;;;5059448;27;87651;-60
2024/01/25 09:35:00;;;;;;;2.70;1.13;;;;;;;;;;5046550;27;88479;-60
2024/01/25 09:37:28;;;;;;;2.73;0.80;;;;;;;;;;5058877;27;87827;-60
2024/01/25 09:40:01;;;;;;;2.30;1.00;;;;;;;;;;5058945;27;87982;-59
2024/01/25 09:42:31;;;;;;;1.47;1.23;;;;;;;;;;5061119;27;88971;-59
2024/01/25 09:44:59;;;;;;;3.27;1.17;;;;;;;;;;5061418;27;89762;-60
2024/01/25 09:47:28;;;;;;;3.97;1.53;;;;;;;;;;5061404;27;89097;-60
2024/01/25 09:49:58;;;;;;;1.33;1.10;;;;;;;;;;5059678;27;89497;-60
2024/01/25 09:52:28;;;;;;;1.10;1.00;;;;;;;;;;5053248;27;87602;-60
2024/01/25 09:54:57;;;;;;;1.97;1.00;;;;;;;;;;5040923;27;88472;-60
2024/01/25 09:57:26;;;;;;;3.07;1.20;;;;;;;;;;5051713;27;89186;-60
2024/01/25 09:59:56;;;;;;;2.63;1.17;;;;;;;;;;5060724;27;87882;-60
2024/01/25 10:02:25;;;;;;;3.90;1.00;;;;;;;;;;5064375;27;87313;-60
2024/01/25 10:04:53;;;;;;;6.07;1.03;;;;;;;;;;5058491;27;88532;-60
2024/01/25 10:07:39;;;;;;;3.77;1.13;;;;;;;;;;5047559;27;90562;-60
2024/01/25 10:10:08;;;;;;;4.80;1.00;;;;;;;;;;5050343;27;89722;-61
2024/01/25 10:12:39;;;;;;;2.43;1.20;;;;;;;;;;5059985;27;87631;-61
2024/01/25 10:15:08;;;;;;;3.67;0.97;;;;;;;;;;5057642;27;90543;-61
2024/01/25 10:17:36;;;;;;;1.07;0.80;;;;;;;;;;5059374;27;89137;-60
2024/01/25 10:20:10;;;;;;;1.00;0.90;;;;;;;;;;5059460;27;89630;-60
2024/01/25 10:22:41;;;;;;;1.33;1.17;;;;;;;;;;5058052;27;87441;-60
2024/01/25 10:25:14;;;;;;;2.03;0.93;;;;;;;;;;5059776;27;88800;-61
2024/01/25 10:27:44;;;;;;;5.13;1.20;;;;;;;;;;5061047;27;88131;-60
2024/01/25 10:30:13;;;;;;;2.17;1.10;;;;;;;;;;5054451;27;87353;-60
2024/01/25 10:32:42;;;;;;;4.80;0.57;;;;;;;;;;5040362;27;87888;-60
2024/01/25 10:35:11;;;;;;;3.70;1.20;;;;;;;;;;5040226;27;89550;-60
2024/01/25 10:37:45;;;;;;;2.70;0.97;;;;;;;;;;5040677;27;89099;-61
2024/01/25 10:40:14;;;;;;;1.90;1.20;;;;;;;;;;5040261;27;88790;-60
2024/01/25 10:42:43;;;;;;;0.77;0.67;;;;;;;;;;5056776;27;87090;-60
2024/01/25 10:45:12;;;;;;;1.63;0.93;;;;;;;;;;5060588;27;88506;-61
2024/01/25 10:47:40;;;;;;;2.37;0.90;;;;;;;;;;5050467;27;87914;-60
2024/01/25 10:50:09;;;;;;;0.87;0.80;;;;;;;;;;5040383;27;87813;-60
2024/01/25 10:52:39;;;;;;;2.27;0.70;;;;;;;;;;5040871;27;87533;-60
2024/01/25 10:55:09;;;;;;;3.20;1.30;;;;;;;;;;5043830;27;89821;-61
2024/01/25 10:57:38;;;;;;;3.17;1.17;;;;;;;;;;5058978;27;91161;-60
2024/01/25 11:00:11;;;;;;;0.80;0.80;;;;;;;;;;5056962;27;89746;-60
2024/01/25 11:02:42;;;;;;;3.67;1.13;;;;;;;;;;5053186;27;87422;-60
2024/01/25 11:05:12;;;;;;;1.63;1.10;;;;;;;;;;5053145;27;89668;-61
2024/01/25 11:07:44;;;;;;;1.07;0.93;;;;;;;;;;5059246;27;88983;-61
2024/01/25 11:10:16;;;;;;;0.90;0.67;;;;;;;;;;5064888;27;87516;-61
2024/01/25 11:12:51;;;;;;;2.00;0.73;;;;;;;;;;5055361;27;87469;-61
2024/01/25 11:15:21;;;;;;;2.50;1.07;;;;;;;;;;5056230;27;89680;-60
2024/01/25 11:17:53;;;;;;;1.93;1.10;;;;;;;;;;5059503;27;89080;-61
2024/01/25 11:20:22;;;;;;;3.07;0.80;;;;;;;;;;5060068;27;88871;-60
2024/01/25 11:22:52;;;;;;;4.47;0.70;;;;;;;;;;5057610;27;87927;-61
2024/01/25 11:25:22;;;;;;;2.63;1.07;;;;;;;;;;5058049;27;89697;-62
2024/01/25 11:27:51;;;;;;;4.47;1.10;;;;;;;;;;5057820;27;89139;-60
2024/01/25 11:30:20;;;;;;;1.47;0.90;;;;;;;;;;5058558;27;87879;-60
2024/01/25 11:32:48;;;;;;;2.07;0.93;;;;;;;;;;5061222;27;87845;-60
2024/01/25 11:35:17;;;;;;;6.73;0.97;;;;;;;;;;5063035;27;88248;-60
2024/01/25 11:37:47;;;;;;;1.20;0.90;;;;;;;;;;5061529;27;88237;-60
2024/01/25 11:40:15;;;;;;;2.90;1.40;;;;;;;;;;5059251;27;90313;-60
2024/01/25 11:42:46;;;;;;;3.00;1.00;;;;;;;;;;5058859;27;87651;-60
2024/01/25 11:45:14;;;;;;;2.60;0.90;;;;;;;;;;5056116;27;89662;-60
2024/01/25 11:47:45;;;;;;;5.80;1.03;;;;;;;;;;5059762;27;89967;-60
2024/01/25 11:50:17;;;;;;;4.10;1.50;;;;;;;;;;5059579;27;89683;-61
2024/01/25 11:52:47;;;;;;;5.67;1.93;;;;;;;;;;5062044;27;87521;-60
2024/01/25 11:55:16;;;;;;;4.73;1.60;;;;;;;;;;5057846;27;89792;-60
2024/01/25 11:57:49;;;;;;;1.30;1.20;;;;;;;;;;5058512;27;89115;-60
2024/01/25 12:00:18;;;;;;;3.83;1.93;;;;;;;;;;5062824;27;89052;-60
2024/01/25 12:02:49;;;;;;;5.37;2.60;;;;;;;;;;5062864;27;87661;-61
2024/01/25 12:05:19;;;;;;;3.57;2.20;;;;;;;;;;5062718;27;89595;-61
2024/01/25 12:07:48;;;;;;;4.00;2.43;;;;;;;;;;5062585;27;88020;-61
2024/01/25 12:10:22;;;;;;;7.10;2.83;;;;;;;;;;5056105;27;88981;-60
2024/01/25 12:12:54;;;;;;;8.47;3.17;;;;;;;;;;5061399;27;88025;-61
2024/01/25 12:15:23;;;;;;;5.10;3.40;;;;;;;;;;5059560;27;87478;-60
2024/01/25 12:17:51;;;;;;;7.17;3.57;;;;;;;;;;5062284;27;89103;-60
2024/01/25 12:20:21;;;;;;;4.70;3.27;;;;;;;;;;5060131;27;88945;-61
2024/01/25 12:22:50;;;;;;;7.93;3.73;;;;;;;;;;5062421;27;87637;-60
2024/01/25 12:25:23;;;;;;;6.67;2.80;;;;;;;;;;5062278;27;89722;-60
2024/01/25 12:27:53;;;;;;;4.37;3.23;;;;;;;;;;5062136;27;89278;-60
2024/01/25 12:30:24;;;;;;;6.53;3.60;;;;;;;;;;5061092;27;88973;-61
2024/01/25 12:32:52;;;;;;;9.20;4.70;;;;;;;;;;5062129;27;87665;-60
2024/01/25 12:35:20;;;;;;;4.43;3.40;;;;;;;;;;5061574;27;88519;-60
2024/01/25 12:37:49;;;;;;;7.30;4.33;;;;;;;;;;5061501;27;88857;-61
2024/01/25 12:40:18;;;;;;;5.10;3.43;;;;;;;;;;5060817;27;88728;-61
2024/01/25 12:42:47;;;;;;;8.77;4.73;;;;;;;;;;5061469;27;87229;-61
2024/01/25 12:45:24;;;;;;;6.50;4.40;;;;;;;;;;5058970;27;89709;-60
2024/01/25 12:47:52;;;;;;;7.77;4.13;;;;;;;;;;5060889;27;89182;-60
2024/01/25 12:50:21;;;;;;;6.33;3.27;;;;;;;;;;5060917;27;88884;-61
2024/01/25 12:52:50;;;;;;;6.30;3.73;;;;;;;;;;5061393;27;88556;-60
2024/01/25 12:55:22;;;;;;;7.03;3.97;;;;;;;;;;5061786;27;89776;-61
2024/01/25 12:57:50;;;;;;;8.03;4.33;;;;;;;;;;5061772;27;87521;-60
2024/01/25 13:00:22;;;;;;;5.73;3.57;;;;;;;;;;5060883;27;88838;-61
2024/01/25 13:02:51;;;;;;;5.50;3.23;;;;;;;;;;5061234;27;87941;-60
2024/01/25 13:05:19;;;;;;;7.20;4.37;;;;;;;;;;5060657;27;89584;-60
2024/01/25 13:07:48;;;;;;;7.57;4.37;;;;;;;;;;5061252;27;89170;-61
2024/01/25 13:10:16;;;;;;;7.17;3.60;;;;;;;;;;5058999;27;88909;-61
2024/01/25 13:12:45;;;;;;;7.90;4.37;;;;;;;;;;5061768;27;87593;-61
2024/01/25 13:15:14;;;;;;;9.27;3.77;;;;;;;;;;5061366;27;88487;-61
2024/01/25 13:17:46;;;;;;;8.07;4.20;;;;;;;;;;5060498;27;88958;-61
2024/01/25 13:20:15;;;;;;;9.53;3.17;;;;;;;;;;5058463;27;89027;-61
2024/01/25 13:22:45;;;;;;;8.40;3.93;;;;;;;;;;5060709;27;87596;-61
2024/01/25 13:25:14;;;;;;;5.20;3.47;;;;;;;;;;5060536;27;89667;-60
2024/01/25 13:27:43;;;;;;;8.40;3.67;;;;;;;;;;5060327;27;88843;-61
2024/01/25 13:30:14;;;;;;;5.67;3.23;;;;;;;;;;5060621;27;89869;-61
2024/01/25 13:32:44;;;;;;;5.87;3.33;;;;;;;;;;5061509;27;87232;-61
2024/01/25 13:35:14;;;;;;;4.67;3.20;;;;;;;;;;5061244;27;89650;-61
2024/01/25 13:37:43;;;;;;;5.10;2.53;;;;;;;;;;5061058;27;87568;-61
2024/01/25 13:40:11;;;;;;;6.73;3.80;;;;;;;;;;5061117;27;87666;-61
2024/01/25 13:42:40;;;;;;;6.07;3.20;;;;;;;;;;5060408;27;87465;-61
2024/01/25 13:45:11;;;;;;;6.33;3.77;;;;;;;;;;5060810;27;88708;-62
2024/01/25 13:47:42;;;;;;;6.97;3.50;;;;;;;;;;5060072;27;88202;-61
2024/01/25 13:50:11;;;;;;;4.87;3.03;;;;;;;;;;5060361;27;88938;-62
2024/01/25 13:52:41;;;;;;;6.10;2.70;;;;;;;;;;5058981;27;88620;-61
2024/01/25 13:55:10;;;;;;;3.70;2.67;;;;;;;;;;5059621;27;88648;-61
2024/01/25 13:57:38;;;;;;;5.83;2.90;;;;;;;;;;5057306;27;89130;-62
2024/01/25 14:00:07;;;;;;;5.70;3.30;;;;;;;;;;5060184;27;87869;-62
2024/01/25 14:02:36;;;;;;;6.40;2.90;;;;;;;;;;5058038;27;87166;-62
2024/01/25 14:05:04;;;;;;;6.47;3.47;;;;;;;;;;5060378;27;89684;-60
2024/01/25 14:07:37;;;;;;;8.47;3.10;;;;;;;;;;5059769;27;89033;-61
2024/01/25 14:10:12;;;;;;;7.57;3.53;;;;;;;;;;5060147;27;88832;-62
2024/01/25 14:12:43;;;;;;;4.77;3.10;;;;;;;;;;5060009;27;87344;-62
2024/01/25 14:15:12;;;;;;;6.00;3.57;;;;;;;;;;5059760;27;89598;-62
2024/01/25 14:17:41;;;;;;;8.77;3.60;;;;;;;;;;5058624;27;88036;-62
2024/01/25 14:20:10;;;;;;;29.03;14.27;;;;;;;;;;5059528;27;89828;-62
2024/01/25 14:22:40;;;;;;;59.37;28.60;;;;;;;;;;5057700;27;87666;-62
2024/01/25 14:25:13;;;;;;;47.53;27.90;;;;;;;;;;5059667;27;89614;-62
2024/01/25 14:27:43;;;;;;;63.57;33.17;;;;;;;;;;5059643;27;89089;-62
2024/01/25 14:30:12;;;;;;;52.33;29.57;;;;;;;;;;5058798;27;89085;-62
2024/01/25 14:32:41;;;;;;;52.93;28.87;;;;;;;;;;5058538;27;87515;-62
2024/01/25 14:35:14;;;;;;;46.00;27.00;;;;;;;;;;5059280;27;89588;-62
2024/01/25 14:37:46;;;;;;;43.23;24.50;;;;;;;;;;5059659;27;87418;-62
2024/01/25 14:40:16;;;;;;;40.20;24.20;;;;;;;;;;5059039;27;88874;-62
2024/01/25 14:43:04;;;;;;;40.07;20.53;;;;;;;;;;5059165;27;87957;-62
2024/01/25 14:45:34;;;;;;;35.10;21.10;;;;;;;;;;5059991;27;89651;-62
2024/01/25 14:48:02;;;;;;;35.13;20.57;;;;;;;;;;5060056;27;89267;-62
2024/01/25 14:50:34;;;;;;;34.40;19.47;;;;;;;;;;5060149;27;89124;-62
2024/01/25 14:53:03;;;;;;;31.43;18.47;;;;;;;;;;5059569;27;87475;-62
2024/01/25 14:55:32;;;;;;;30.47;17.40;;;;;;;;;;5059743;27;88480;-62